Time;durP1;ratioP1;P1;durP2;ratioP2;P2;SDS_P1;SDS_P2;PMS_P1;PMS_P2;Temp;Humidity;BMP_temperature;BMP_pressure;BME280_temperature;BME280_humidity;BME280_pressure;Samples;Min_cycle;Max_cycle;Signal;HPM_P1;HPM_P2
2023/05/09 05:09:03;;;;;;;;;;;;;;;;;;5104529;27;20290;-47
2023/05/09 05:11:30;;;;;;;;;;;;;;;;;;5110869;28;19915;-48
2023/05/09 05:13:56;;;;;;;;;;;;;;;;;;5105111;28;19969;-47
2023/05/09 05:16:22;;;;;;;;;;;;;;;;;;5109346;28;19920;-48
2023/05/09 05:18:48;;;;;;;;;;;;;;;;;;5111118;28;19951;-45
2023/05/09 05:21:15;;;;;;;;;;;;;;;;;;5111166;28;19961;-47
2023/05/09 05:23:41;;;;;;;;;;;;;;;;;;5102309;28;20291;-48
2023/05/09 05:26:06;;;;;;;;;;;;;;;;;;5093538;28;19918;-46
2023/05/09 05:28:32;;;;;;;;;;;;;;;;;;5104844;28;20053;-44
2023/05/09 05:30:58;;;;;;;;;;;;;;;;;;5106648;28;20005;-46
2023/05/09 05:33:25;;;;;;;;;;;;;;;;;;5109461;28;19915;-48
2023/05/09 05:35:51;;;;;;;;;;;;;;;;;;5109467;28;19919;-47
2023/05/09 05:38:17;;;;;;;;;;;;;;;;;;5099993;28;19919;-46
2023/05/09 05:40:43;;;;;;;;;;;;;;;;;;5095737;28;19934;-48
2023/05/09 05:43:09;;;;;;;;;;;;;;;;;;5108286;28;19915;-45
2023/05/09 05:45:35;;;;;;;;;;;;;;;;;;5110207;28;20259;-44
2023/05/09 05:48:01;;;;;;;;;;;;;;;;;;5108163;28;19920;-46
2023/05/09 05:50:27;;;;;;;;;;;;;;;;;;5103543;28;20365;-46
2023/05/09 05:52:53;;;;;;;;;;;;;;;;;;5102245;28;20026;-45
2023/05/09 05:55:19;;;;;;;;;;;;;;;;;;5111425;28;19916;-48
2023/05/09 05:57:47;;;;;;;;;;;;;;;;;;5110826;28;19934;-46
2023/05/09 06:00:13;;;;;;;;;;;;;;;;;;5110838;28;20499;-48
2023/05/09 06:02:39;;;;;;;;;;;;;;;;;;5107938;28;19916;-45
2023/05/09 06:05:06;;;;;;;;;;;;;;;;;;5099951;27;19916;-47
2023/05/09 06:07:31;;;;;;;;;;;;;;;;;;5107714;28;19918;-47
2023/05/09 06:09:57;;;;;;;;;;;;;;;;;;5106196;28;19911;-45
2023/05/09 06:12:23;;;;;;;;;;;;;;;;;;5103713;28;20355;-46
2023/05/09 06:14:49;;;;;;;;;;;;;;;;;;5106183;28;19924;-48
2023/05/09 06:17:15;;;;;;;;;;;;;;;;;;5110290;28;19915;-46
2023/05/09 06:19:41;;;;;;;;;;;;;;;;;;5109602;28;19952;-48
2023/05/09 06:22:07;;;;;;;;;;;;;;;;;;5108783;28;19907;-46
2023/05/09 06:24:33;;;;;;;;;;;;;;;;;;5108637;28;19916;-44
2023/05/09 06:26:59;;;;;;;;;;;;;;;;;;5109864;28;20060;-45
2023/05/09 06:29:25;;;;;;;;;;;;;;;;;;5109339;28;19915;-46
2023/05/09 06:31:51;;;;;;;;;;;;;;;;;;5105779;28;19912;-48
2023/05/09 06:34:17;;;;;;;;;;;;;;;;;;5095872;28;20136;-46
2023/05/09 06:36:44;;;;;;;;;;;;;;;;;;5107988;28;19959;-46
2023/05/09 06:39:11;;;;;;;;;;;;;;;;;;5108987;28;19961;-47
2023/05/09 06:41:37;;;;;;;;;;;;;;;;;;5108130;28;19927;-49
2023/05/09 06:44:03;;;;;;;;;;;;;;;;;;5109548;28;19915;-46
2023/05/09 06:46:29;;;;;;;;;;;;;;;;;;5104976;28;19915;-47
2023/05/09 06:48:56;;;;;;;;;;;;;;;;;;5107445;28;19911;-48
2023/05/09 06:51:21;;;;;;;;;;;;;;;;;;5107919;28;19908;-45
2023/05/09 06:53:47;;;;;;;;;;;;;;;;;;5108028;28;20496;-48
2023/05/09 06:56:14;;;;;;;;;;;;;;;;;;5107764;28;19915;-45
2023/05/09 06:58:40;;;;;;;;;;;;;;;;;;5107634;28;19992;-48
2023/05/09 07:01:06;;;;;;;;;;;;;;;;;;5107725;28;19912;-46
2023/05/09 07:03:33;;;;;;;;;;;;;;;;;;5107821;28;19943;-48
2023/05/09 07:05:59;;;;;;;;;;;;;;;;;;5107626;28;19911;-48
2023/05/09 07:08:25;;;;;;;;;;;;;;;;;;5106241;28;20301;-49
2023/05/09 07:10:51;;;;;;;;;;;;;;;;;;5106047;28;19969;-48
2023/05/09 07:13:18;;;;;;;;;;;;;;;;;;5102434;28;19916;-49
2023/05/09 07:15:44;;;;;;;;;;;;;;;;;;5085444;28;20011;-48
2023/05/09 07:18:11;;;;;;;;;;;;;;;;;;5085357;28;20002;-45
2023/05/09 07:20:38;;;;;;;;;;;;;;;;;;5085186;28;20154;-49
2023/05/09 07:23:04;;;;;;;;;;;;;;;;;;5085661;28;20195;-46
2023/05/09 07:25:30;;;;;;;;;;;;;;;;;;5085503;28;19908;-46
2023/05/09 07:27:56;;;;;;;;;;;;;;;;;;5086138;28;20276;-46
2023/05/09 07:30:22;;;;;;;;;;;;;;;;;;5085497;28;19962;-47
2023/05/09 07:32:48;;;;;;;;;;;;;;;;;;5089167;28;19915;-49
2023/05/09 07:35:14;;;;;;;;;;;;;;;;;;5089097;28;20633;-48
2023/05/09 07:37:41;;;;;;;;;;;;;;;;;;5089391;28;20445;-48
2023/05/09 07:40:07;;;;;;;;;;;;;;;;;;5089082;28;19957;-45
2023/05/09 07:42:33;;;;;;;;;;;;;;;;;;5089202;28;20240;-47
2023/05/09 07:44:59;;;;;;;;;;;;;;;;;;5089611;28;19905;-45
2023/05/09 07:47:26;;;;;;;;;;;;;;;;;;5089844;28;19916;-47
2023/05/09 07:49:52;;;;;;;;;;;;;;;;;;5088938;28;19951;-48
2023/05/09 07:52:17;;;;;;;;;;;;;;;;;;5089177;28;19936;-48
2023/05/09 07:54:43;;;;;;;;;;;;;;;;;;5088979;28;19923;-47
2023/05/09 07:57:09;;;;;;;;;;;;;;;;;;5088978;28;20025;-48
2023/05/09 07:59:35;;;;;;;;;;;;;;;;;;5088819;28;19916;-47
2023/05/09 08:02:02;;;;;;;;;;;;;;;;;;5088838;28;19908;-48
2023/05/09 08:04:28;;;;;;;;;;;;;;;;;;5089349;28;19954;-48
2023/05/09 08:06:54;;;;;;;;;;;;;;;;;;5089403;28;19947;-47
2023/05/09 08:09:20;;;;;;;;;;;;;;;;;;5088731;28;19978;-46
2023/05/09 08:11:46;;;;;;;;;;;;;;;;;;5088449;28;19916;-47
2023/05/09 08:14:12;;;;;;;;;;;;;;;;;;5088434;28;19914;-49
2023/05/09 08:16:39;;;;;;;;;;;;;;;;;;5088598;28;19919;-49
2023/05/09 08:19:05;;;;;;;;;;;;;;;;;;5088433;28;19922;-49
2023/05/09 08:21:31;;;;;;;;;;;;;;;;;;5088546;28;19908;-48
2023/05/09 08:23:57;;;;;;;;;;;;;;;;;;5089234;28;19908;-48
2023/05/09 08:26:23;;;;;;;;;;;;;;;;;;5088262;28;19915;-49
2023/05/09 08:28:48;;;;;;;;;;;;;;;;;;5088296;28;20570;-46
2023/05/09 08:31:14;;;;;;;;;;;;;;;;;;5088206;28;19912;-46
2023/05/09 08:33:40;;;;;;;;;;;;;;;;;;5088154;28;19912;-46
2023/05/09 08:36:06;;;;;;;;;;;;;;;;;;5088243;28;20338;-48
2023/05/09 08:38:32;;;;;;;;;;;;;;;;;;5088189;28;19927;-47
2023/05/09 08:40:59;;;;;;;;;;;;;;;;;;5088909;28;19908;-46
2023/05/09 08:43:25;;;;;;;;;;;;;;;;;;5088523;28;19916;-47
2023/05/09 08:45:51;;;;;;;;;;;;;;;;;;5087945;28;19915;-49
2023/05/09 08:48:17;;;;;;;;;;;;;;;;;;5087693;28;19912;-45
2023/05/09 08:50:43;;;;;;;;;;;;;;;;;;5088125;28;19909;-47
2023/05/09 08:53:09;;;;;;;;;;;;;;;;;;5088037;28;20387;-48
2023/05/09 08:55:35;;;;;;;;;;;;;;;;;;5087766;28;19923;-48
2023/05/09 08:58:00;;;;;;;;;;;;;;;;;;5087703;28;19939;-48
2023/05/09 09:00:26;;;;;;;;;;;;;;;;;;5088051;28;19908;-48
2023/05/09 09:02:52;;;;;;;;;;;;;;;;;;5087780;28;19973;-49
2023/05/09 09:05:19;;;;;;;;;;;;;;;;;;5087697;28;20011;-48
2023/05/09 09:07:45;;;;;;;;;;;;;;;;;;5104380;28;19922;-49
2023/05/09 09:10:11;;;;;;;;;;;;;;;;;;5108700;28;19915;-48
2023/05/09 09:12:37;;;;;;;;;;;;;;;;;;5090768;28;20284;-49
2023/05/09 09:15:03;;;;;;;;;;;;;;;;;;5101012;28;19920;-47
2023/05/09 09:17:29;;;;;;;;;;;;;;;;;;5107850;28;19912;-46
2023/05/09 09:19:55;;;;;;;;;;;;;;;;;;5103803;28;19951;-49
2023/05/09 09:22:21;;;;;;;;;;;;;;;;;;5108610;28;19922;-46
2023/05/09 09:24:47;;;;;;;;;;;;;;;;;;5116805;27;19911;-48
2023/05/09 09:27:12;;;;;;;;;;;;;;;;;;5108954;27;20334;-45
2023/05/09 09:29:38;;;;;;;;;;;;;;;;;;5107136;28;19973;-47
2023/05/09 09:32:04;;;;;;;;;;;;;;;;;;5104718;28;19911;-49
2023/05/09 09:34:30;;;;;;;;;;;;;;;;;;5108721;28;20050;-45
2023/05/09 09:36:56;;;;;;;;;;;;;;;;;;5108310;28;19956;-49
2023/05/09 09:39:22;;;;;;;;;;;;;;;;;;5108208;28;19937;-48
2023/05/09 09:41:48;;;;;;;;;;;;;;;;;;5108314;28;20298;-47
2023/05/09 09:44:14;;;;;;;;;;;;;;;;;;5108444;28;19912;-45
2023/05/09 09:46:40;;;;;;;;;;;;;;;;;;5109053;28;20085;-48
2023/05/09 09:49:06;;;;;;;;;;;;;;;;;;5108367;28;19912;-49
2023/05/09 09:51:33;;;;;;;;;;;;;;;;;;5108209;28;19998;-48
2023/05/09 09:54:00;;;;;;;;;;;;;;;;;;5107930;28;20382;-47
2023/05/09 09:56:26;;;;;;;;;;;;;;;;;;5106578;28;19919;-50
2023/05/09 09:58:52;;;;;;;;;;;;;;;;;;5098178;28;19955;-46
2023/05/09 10:01:19;;;;;;;;;;;;;;;;;;5102149;28;19950;-45
2023/05/09 10:03:45;;;;;;;;;;;;;;;;;;5108430;28;19927;-48
2023/05/09 10:06:11;;;;;;;;;;;;;;;;;;5109719;28;19916;-46
2023/05/09 10:08:37;;;;;;;;;;;;;;;;;;5109433;28;19939;-48
2023/05/09 10:11:03;;;;;;;;;;;;;;;;;;5123709;27;19986;-45
2023/05/09 10:13:29;;;;;;;;;;;;;;;;;;5127881;27;19980;-45
2023/05/09 10:15:56;;;;;;;;;;;;;;;;;;5128481;27;19934;-47
2023/05/09 10:18:22;;;;;;;;;;;;;;;;;;5127588;27;19953;-47
2023/05/09 10:20:49;;;;;;;;;;;;;;;;;;5123090;27;19911;-49
2023/05/09 10:23:15;;;;;;;;;;;;;;;;;;5117596;27;19937;-46
2023/05/09 10:25:41;;;;;;;;;;;;;;;;;;5120708;27;19916;-48
2023/05/09 10:28:07;;;;;;;;;;;;;;;;;;5104777;27;19907;-46
2023/05/09 10:30:33;;;;;;;;;;;;;;;;;;5126251;27;20366;-48
2023/05/09 10:32:59;;;;;;;;;;;;;;;;;;5120611;27;20435;-48
2023/05/09 10:35:25;;;;;;;;;;;;;;;;;;5108916;28;19919;-47
2023/05/09 10:37:51;;;;;;;;;;;;;;;;;;5128432;27;19915;-49
2023/05/09 10:40:18;;;;;;;;;;;;;;;;;;5127957;27;20002;-49
2023/05/09 10:42:44;;;;;;;;;;;;;;;;;;5128874;27;19916;-45
2023/05/09 10:45:10;;;;;;;;;;;;;;;;;;5129901;27;19915;-49
2023/05/09 10:47:36;;;;;;;;;;;;;;;;;;5128235;27;20388;-48
2023/05/09 10:50:02;;;;;;;;;;;;;;;;;;5116574;27;19955;-48
2023/05/09 10:52:28;;;;;;;;;;;;;;;;;;5127127;27;20002;-44
2023/05/09 10:54:54;;;;;;;;;;;;;;;;;;5102150;28;20043;-47
2023/05/09 10:57:20;;;;;;;;;;;;;;;;;;5124086;27;19919;-47
2023/05/09 10:59:46;;;;;;;;;;;;;;;;;;5126507;28;19923;-45
2023/05/09 11:02:12;;;;;;;;;;;;;;;;;;5125405;27;19911;-44
2023/05/09 11:04:38;;;;;;;;;;;;;;;;;;5112221;27;20374;-45
2023/05/09 11:07:04;;;;;;;;;;;;;;;;;;5120929;27;19998;-48
2023/05/09 11:09:34;;;;;;;;;;;;;;;;;;5125272;27;19916;-48
2023/05/09 11:12:00;;;;;;;;;;;;;;;;;;5118837;27;20011;-48
2023/05/09 11:14:26;;;;;;;;;;;;;;;;;;5109796;27;19922;-48
2023/05/09 11:16:52;;;;;;;;;;;;;;;;;;5128263;27;19963;-48
2023/05/09 11:19:18;;;;;;;;;;;;;;;;;;5128007;27;19911;-46
2023/05/09 11:21:44;;;;;;;;;;;;;;;;;;5127524;27;19938;-46
2023/05/09 11:24:10;;;;;;;;;;;;;;;;;;5127380;27;19996;-46
2023/05/09 11:26:37;;;;;;;;;;;;;;;;;;5130818;27;19936;-47
2023/05/09 11:29:03;;;;;;;;;;;;;;;;;;5109460;27;19968;-49
2023/05/09 11:31:29;;;;;;;;;;;;;;;;;;5130064;27;19915;-47
2023/05/09 11:33:57;;;;;;;;;;;;;;;;;;5129869;27;19920;-49
2023/05/09 11:36:28;;;;;;;;;;;;;;;;;;5129862;27;20293;-46
2023/05/09 11:38:54;;;;;;;;;;;;;;;;;;5131075;27;19990;-44
2023/05/09 11:41:20;;;;;;;;;;;;;;;;;;5129695;27;20041;-45
2023/05/09 11:43:46;;;;;;;;;;;;;;;;;;5112713;27;19915;-49
2023/05/09 11:46:12;;;;;;;;;;;;;;;;;;5131192;27;19923;-48
2023/05/09 11:48:38;;;;;;;;;;;;;;;;;;5117611;27;19912;-46
2023/05/09 11:51:04;;;;;;;;;;;;;;;;;;5111817;27;19912;-48
2023/05/09 11:53:31;;;;;;;;;;;;;;;;;;5129218;27;20376;-49
2023/05/09 11:55:57;;;;;;;;;;;;;;;;;;5128839;27;20388;-45
2023/05/09 11:58:23;;;;;;;;;;;;;;;;;;5105458;27;19919;-47
2023/05/09 12:00:49;;;;;;;;;;;;;;;;;;5126794;27;19950;-45
2023/05/09 12:03:14;;;;;;;;;;;;;;;;;;5107492;28;19922;-46
2023/05/09 12:05:41;;;;;;;;;;;;;;;;;;5126775;27;19919;-46
2023/05/09 12:08:08;;;;;;;;;;;;;;;;;;5109654;27;19919;-46
2023/05/09 12:10:34;;;;;;;;;;;;;;;;;;5128107;27;19915;-47
2023/05/09 12:13:00;;;;;;;;;;;;;;;;;;5129962;27;19926;-45
2023/05/09 12:15:26;;;;;;;;;;;;;;;;;;5126910;27;19918;-46
2023/05/09 12:17:52;;;;;;;;;;;;;;;;;;5123451;27;19915;-46
2023/05/09 12:20:18;;;;;;;;;;;;;;;;;;5129021;27;20367;-45
2023/05/09 12:22:44;;;;;;;;;;;;;;;;;;5128797;27;19934;-45
2023/05/09 12:25:10;;;;;;;;;;;;;;;;;;5128848;27;19914;-45
2023/05/09 12:27:36;;;;;;;;;;;;;;;;;;5130466;27;19911;-45
2023/05/09 12:30:02;;;;;;;;;;;;;;;;;;5128989;27;20637;-45
2023/05/09 12:32:31;;;;;;;;;;;;;;;;;;5127074;27;19916;-47
2023/05/09 12:34:57;;;;;;;;;;;;;;;;;;5126923;27;20419;-45
2023/05/09 12:37:23;;;;;;;;;;;;;;;;;;5123180;27;19954;-45
2023/05/09 12:39:50;;;;;;;;;;;;;;;;;;5127971;27;19915;-47
2023/05/09 12:42:16;;;;;;;;;;;;;;;;;;5130288;27;20425;-45
2023/05/09 12:44:47;;;;;;;;;;;;;;;;;;5127480;27;19960;-44
2023/05/09 12:47:13;;;;;;;;;;;;;;;;;;5128782;27;19919;-44
2023/05/09 12:49:39;;;;;;;;;;;;;;;;;;5128452;27;19920;-46
2023/05/09 12:52:05;;;;;;;;;;;;;;;;;;5129892;27;19916;-45
2023/05/09 12:54:31;;;;;;;;;;;;;;;;;;5129082;27;19908;-44
2023/05/09 12:56:57;;;;;;;;;;;;;;;;;;5126542;27;19915;-44
2023/05/09 12:59:23;;;;;;;;;;;;;;;;;;5121289;27;19979;-45
2023/05/09 13:01:49;;;;;;;;;;;;;;;;;;5127903;27;20389;-45
2023/05/09 13:04:15;;;;;;;;;;;;;;;;;;5119837;27;19920;-45
2023/05/09 13:06:41;;;;;;;;;;;;;;;;;;5104578;27;20230;-44
2023/05/09 13:09:08;;;;;;;;;;;;;;;;;;5127661;27;20325;-44
2023/05/09 13:11:36;;;;;;;;;;;;;;;;;;5130016;27;20064;-45
2023/05/09 13:14:02;;;;;;;;;;;;;;;;;;5129892;27;19919;-45
2023/05/09 13:16:28;;;;;;;;;;;;;;;;;;5110128;27;20362;-44
2023/05/09 13:18:54;;;;;;;;;;;;;;;;;;5130075;27;19911;-43
2023/05/09 13:21:20;;;;;;;;;;;;;;;;;;5110288;27;19931;-47
2023/05/09 13:23:48;;;;;;;;;;;;;;;;;;5128132;27;19911;-44
2023/05/09 13:26:14;;;;;;;;;;;;;;;;;;5110307;27;19915;-44
2023/05/09 13:28:40;;;;;;;;;;;;;;;;;;5127702;27;19912;-44
2023/05/09 13:31:06;;;;;;;;;;;;;;;;;;5124544;27;19912;-44
2023/05/09 13:33:32;;;;;;;;;;;;;;;;;;5128141;27;19915;-44
2023/05/09 13:35:58;;;;;;;;;;;;;;;;;;5128461;27;19937;-43
2023/05/09 13:38:24;;;;;;;;;;;;;;;;;;5129161;27;19908;-44
2023/05/09 13:40:50;;;;;;;;;;;;;;;;;;5128121;27;19925;-44
2023/05/09 13:43:17;;;;;;;;;;;;;;;;;;5125621;27;19912;-44
2023/05/09 13:45:43;;;;;;;;;;;;;;;;;;5128497;27;19908;-44
2023/05/09 13:48:10;;;;;;;;;;;;;;;;;;5128432;27;19984;-44
2023/05/09 13:50:36;;;;;;;;;;;;;;;;;;5109514;27;20370;-44
2023/05/09 13:53:02;;;;;;;;;;;;;;;;;;5120812;27;20386;-44
2023/05/09 13:55:29;;;;;;;;;;;;;;;;;;5115205;27;19927;-44
2023/05/09 13:57:55;;;;;;;;;;;;;;;;;;5106196;28;19956;-47
2023/05/09 14:00:23;;;;;;;;;;;;;;;;;;5106433;28;19907;-45
2023/05/09 14:02:50;;;;;;;;;;;;;;;;;;5105743;28;20297;-46
2023/05/09 14:05:17;;;;;;;;;;;;;;;;;;5089962;27;19939;-44
2023/05/09 14:07:43;;;;;;;;;;;;;;;;;;5125644;27;19923;-46
2023/05/09 14:10:10;;;;;;;;;;;;;;;;;;5127379;27;19911;-43
2023/05/09 14:12:38;;;;;;;;;;;;;;;;;;5128724;27;19942;-47
2023/05/09 14:15:06;;;;;;;;;;;;;;;;;;5128068;27;20300;-46
2023/05/09 14:17:32;;;;;;;;;;;;;;;;;;5128889;27;19911;-46
2023/05/09 14:19:58;;;;;;;;;;;;;;;;;;5123014;27;20569;-47
2023/05/09 14:22:24;;;;;;;;;;;;;;;;;;5126996;27;19947;-46
2023/05/09 14:24:50;;;;;;;;;;;;;;;;;;5126990;27;19908;-48
2023/05/09 14:27:16;;;;;;;;;;;;;;;;;;5107559;27;19998;-47
2023/05/09 14:29:42;;;;;;;;;;;;;;;;;;5106428;28;20293;-46
2023/05/09 14:32:11;;;;;;;;;;;;;;;;;;5116108;27;19915;-49
2023/05/09 14:34:37;;;;;;;;;;;;;;;;;;5126781;27;19915;-48
2023/05/09 14:37:03;;;;;;;;;;;;;;;;;;5126896;27;19911;-49
2023/05/09 14:39:29;;;;;;;;;;;;;;;;;;5124510;27;19973;-46
2023/05/09 14:41:55;;;;;;;;;;;;;;;;;;5121580;27;19965;-48
2023/05/09 14:44:23;;;;;;;;;;;;;;;;;;5106212;28;19907;-46
2023/05/09 14:46:50;;;;;;;;;;;;;;;;;;5106631;28;19908;-44
2023/05/09 14:49:15;;;;;;;;;;;;;;;;;;5106108;28;19916;-46
2023/05/09 14:51:41;;;;;;;;;;;;;;;;;;5107607;27;20405;-44
2023/05/09 14:54:07;;;;;;;;;;;;;;;;;;5124656;27;19922;-49
2023/05/09 14:56:33;;;;;;;;;;;;;;;;;;5126613;27;19992;-48
2023/05/09 14:58:59;;;;;;;;;;;;;;;;;;5126563;27;19907;-49
2023/05/09 15:01:25;;;;;;;;;;;;;;;;;;5107837;28;19984;-45
2023/05/09 15:03:51;;;;;;;;;;;;;;;;;;5125005;27;19912;-48
2023/05/09 15:06:17;;;;;;;;;;;;;;;;;;5123175;28;19923;-45
2023/05/09 15:08:43;;;;;;;;;;;;;;;;;;5124267;28;20386;-48
2023/05/09 15:11:09;;;;;;;;;;;;;;;;;;5125551;28;20284;-48
2023/05/09 15:13:34;;;;;;;;;;;;;;;;;;5126328;28;20623;-46
2023/05/09 15:16:01;;;;;;;;;;;;;;;;;;5126305;28;19918;-45
2023/05/09 15:18:27;;;;;;;;;;;;;;;;;;5125330;28;19908;-46
2023/05/09 15:20:53;;;;;;;;;;;;;;;;;;5127212;28;19915;-46
2023/05/09 15:23:19;;;;;;;;;;;;;;;;;;5126438;28;19907;-49
2023/05/09 15:25:45;;;;;;;;;;;;;;;;;;5126355;28;19915;-48
2023/05/09 15:28:11;;;;;;;;;;;;;;;;;;5107652;28;19914;-47
2023/05/09 15:30:39;;;;;;;;;;;;;;;;;;5105778;28;19912;-46
2023/05/09 15:33:06;;;;;;;;;;;;;;;;;;5105808;28;20417;-48
2023/05/09 15:35:31;;;;;;;;;;;;;;;;;;5105598;28;19934;-46
2023/05/09 15:37:57;;;;;;;;;;;;;;;;;;5121423;28;19907;-49
2023/05/09 15:40:23;;;;;;;;;;;;;;;;;;5126861;28;19950;-46
2023/05/09 15:42:49;;;;;;;;;;;;;;;;;;5126197;28;20002;-49
2023/05/09 15:45:15;;;;;;;;;;;;;;;;;;5126222;28;19911;-46
2023/05/09 15:47:41;;;;;;;;;;;;;;;;;;5111772;28;19908;-48
2023/05/09 15:50:07;;;;;;;;;;;;;;;;;;5105578;28;19912;-46
2023/05/09 15:52:34;;;;;;;;;;;;;;;;;;5107053;28;20006;-48
2023/05/09 15:55:02;;;;;;;;;;;;;;;;;;5125068;27;20339;-47
2023/05/09 15:57:28;;;;;;;;;;;;;;;;;;5120382;27;19991;-46
2023/05/09 15:59:54;;;;;;;;;;;;;;;;;;5130418;27;20393;-47
2023/05/09 16:02:21;;;;;;;;;;;;;;;;;;5129948;27;19907;-46
2023/05/09 16:04:47;;;;;;;;;;;;;;;;;;5129918;27;20006;-46
2023/05/09 16:07:13;;;;;;;;;;;;;;;;;;5126806;27;20441;-47
2023/05/09 16:09:41;;;;;;;;;;;;;;;;;;5113551;27;20275;-46
2023/05/09 16:12:08;;;;;;;;;;;;;;;;;;5109191;28;19924;-47
2023/05/09 16:14:34;;;;;;;;;;;;;;;;;;5126375;27;19920;-48
2023/05/09 16:17:00;;;;;;;;;;;;;;;;;;5129803;27;20339;-50
2023/05/09 16:19:26;;;;;;;;;;;;;;;;;;5129937;27;19997;-49
2023/05/09 16:21:52;;;;;;;;;;;;;;;;;;5129864;27;19907;-49
2023/05/09 16:24:19;;;;;;;;;;;;;;;;;;5128417;27;19916;-48
2023/05/09 16:26:45;;;;;;;;;;;;;;;;;;5128628;27;20301;-47
2023/05/09 16:29:11;;;;;;;;;;;;;;;;;;5129559;27;19911;-49
2023/05/09 16:31:37;;;;;;;;;;;;;;;;;;5127347;27;19999;-49
2023/05/09 16:34:03;;;;;;;;;;;;;;;;;;5128640;27;20401;-48
2023/05/09 16:36:31;;;;;;;;;;;;;;;;;;5128816;27;19915;-50
2023/05/09 16:38:57;;;;;;;;;;;;;;;;;;5128960;27;20396;-46
2023/05/09 16:41:24;;;;;;;;;;;;;;;;;;5126467;27;19951;-46
2023/05/09 16:43:50;;;;;;;;;;;;;;;;;;5108495;28;19996;-49
2023/05/09 16:46:17;;;;;;;;;;;;;;;;;;5108410;28;19919;-47
2023/05/09 16:48:43;;;;;;;;;;;;;;;;;;5127022;27;19949;-49
2023/05/09 16:51:09;;;;;;;;;;;;;;;;;;5128373;27;19911;-46
2023/05/09 16:53:35;;;;;;;;;;;;;;;;;;5128774;27;20002;-49
2023/05/09 16:56:01;;;;;;;;;;;;;;;;;;5128867;27;20104;-46
2023/05/09 16:58:27;;;;;;;;;;;;;;;;;;5128988;27;20006;-45
2023/05/09 17:00:54;;;;;;;;;;;;;;;;;;5129352;27;19908;-46
2023/05/09 17:03:20;;;;;;;;;;;;;;;;;;5124484;27;19922;-48
2023/05/09 17:05:46;;;;;;;;;;;;;;;;;;5128714;27;19907;-47
2023/05/09 17:08:12;;;;;;;;;;;;;;;;;;5113697;27;19911;-49
2023/05/09 17:10:38;;;;;;;;;;;;;;;;;;5128218;27;19996;-49
2023/05/09 17:13:06;;;;;;;;;;;;;;;;;;5126814;27;20189;-46
2023/05/09 17:15:33;;;;;;;;;;;;;;;;;;5128543;27;19912;-45
2023/05/09 17:17:59;;;;;;;;;;;;;;;;;;5129090;27;20212;-46
2023/05/09 17:20:25;;;;;;;;;;;;;;;;;;5127143;27;20361;-46
2023/05/09 17:22:51;;;;;;;;;;;;;;;;;;5124929;27;20389;-45
2023/05/09 17:25:17;;;;;;;;;;;;;;;;;;5107902;28;19961;-45
2023/05/09 17:27:44;;;;;;;;;;;;;;;;;;5107527;28;20186;-46
2023/05/09 17:30:10;;;;;;;;;;;;;;;;;;5110378;27;19912;-48
2023/05/09 17:32:36;;;;;;;;;;;;;;;;;;5128014;27;19911;-47
2023/05/09 17:35:03;;;;;;;;;;;;;;;;;;5128294;27;20393;-48
2023/05/09 17:37:29;;;;;;;;;;;;;;;;;;5128398;27;19912;-48
2023/05/09 17:39:56;;;;;;;;;;;;;;;;;;5123761;27;19922;-45
2023/05/09 17:42:22;;;;;;;;;;;;;;;;;;5107344;28;19912;-49
2023/05/09 17:44:49;;;;;;;;;;;;;;;;;;5107267;28;19911;-45
2023/05/09 17:47:15;;;;;;;;;;;;;;;;;;5123442;27;20317;-47
2023/05/09 17:49:42;;;;;;;;;;;;;;;;;;5127432;27;19922;-48
2023/05/09 17:52:08;;;;;;;;;;;;;;;;;;5126026;27;20290;-47
2023/05/09 17:54:35;;;;;;;;;;;;;;;;;;5127513;27;19911;-47
2023/05/09 17:57:01;;;;;;;;;;;;;;;;;;5127714;27;19911;-45
2023/05/09 17:59:27;;;;;;;;;;;;;;;;;;5124770;27;21606;-48
2023/05/09 18:01:53;;;;;;;;;;;;;;;;;;5117902;27;20029;-47
2023/05/09 18:04:19;;;;;;;;;;;;;;;;;;5126536;27;20331;-48
2023/05/09 18:06:45;;;;;;;;;;;;;;;;;;5123739;27;19935;-47
2023/05/09 18:09:11;;;;;;;;;;;;;;;;;;5123996;27;20374;-46
2023/05/09 18:11:37;;;;;;;;;;;;;;;;;;5125142;27;19927;-48
2023/05/09 18:14:03;;;;;;;;;;;;;;;;;;5127950;27;19918;-46
2023/05/09 18:16:29;;;;;;;;;;;;;;;;;;5091863;27;19919;-44
2023/05/09 18:18:58;;;;;;;;;;;;;;;;;;5117820;27;19972;-45
2023/05/09 18:21:24;;;;;;;;;;;;;;;;;;5125030;27;19918;-47
2023/05/09 18:23:50;;;;;;;;;;;;;;;;;;5122281;27;19915;-48
2023/05/09 18:26:16;;;;;;;;;;;;;;;;;;5122687;27;19916;-47
2023/05/09 18:28:41;;;;;;;;;;;;;;;;;;5121318;27;20443;-45
2023/05/09 18:31:11;;;;;;;;;;;;;;;;;;5122104;27;19947;-47
2023/05/09 18:33:38;;;;;;;;;;;;;;;;;;5123966;27;19919;-45
2023/05/09 18:36:05;;;;;;;;;;;;;;;;;;5123883;27;19931;-46
2023/05/09 18:38:34;;;;;;;;;;;;;;;;;;5106576;27;19937;-45
2023/05/09 18:41:00;;;;;;;;;;;;;;;;;;5107616;27;20049;-48
2023/05/09 18:43:27;;;;;;;;;;;;;;;;;;5128982;27;19926;-45
2023/05/09 18:45:53;;;;;;;;;;;;;;;;;;5130287;27;19918;-47
2023/05/09 18:48:20;;;;;;;;;;;;;;;;;;5125329;27;19954;-47
2023/05/09 18:50:46;;;;;;;;;;;;;;;;;;5124749;27;19915;-45
2023/05/09 18:53:13;;;;;;;;;;;;;;;;;;5104445;27;19919;-47
2023/05/09 18:55:39;;;;;;;;;;;;;;;;;;5124588;27;19923;-45
2023/05/09 18:58:05;;;;;;;;;;;;;;;;;;5124913;27;20291;-45
2023/05/09 19:00:31;;;;;;;;;;;;;;;;;;5123684;27;20061;-46
2023/05/09 19:02:58;;;;;;;;;;;;;;;;;;5107112;27;19915;-45
2023/05/09 19:05:23;;;;;;;;;;;;;;;;;;5121546;28;19918;-45
2023/05/09 19:07:49;;;;;;;;;;;;;;;;;;5106764;28;19912;-48
2023/05/09 19:10:16;;;;;;;;;;;;;;;;;;5106353;28;20035;-46
2023/05/09 19:12:42;;;;;;;;;;;;;;;;;;5120191;28;20006;-46
2023/05/09 19:15:08;;;;;;;;;;;;;;;;;;5124996;28;20018;-45
2023/05/09 19:17:34;;;;;;;;;;;;;;;;;;5124652;28;20374;-45
2023/05/09 19:20:01;;;;;;;;;;;;;;;;;;5123480;28;20004;-47
2023/05/09 19:22:27;;;;;;;;;;;;;;;;;;5104907;28;20359;-45
2023/05/09 19:24:53;;;;;;;;;;;;;;;;;;5124725;28;20431;-49
2023/05/09 19:27:19;;;;;;;;;;;;;;;;;;5126000;27;19990;-46
2023/05/09 19:29:45;;;;;;;;;;;;;;;;;;5129360;27;19968;-46
2023/05/09 19:32:11;;;;;;;;;;;;;;;;;;5127667;27;19912;-50
2023/05/09 19:34:37;;;;;;;;;;;;;;;;;;5128098;27;19942;-48
2023/05/09 19:37:03;;;;;;;;;;;;;;;;;;5128946;27;19923;-47
2023/05/09 19:39:28;;;;;;;;;;;;;;;;;;5128311;27;19911;-45
2023/05/09 19:41:54;;;;;;;;;;;;;;;;;;5126647;27;19923;-48
2023/05/09 19:44:20;;;;;;;;;;;;;;;;;;5128940;27;19919;-47
2023/05/09 19:46:46;;;;;;;;;;;;;;;;;;5127862;27;20012;-44
2023/05/09 19:49:14;;;;;;;;;;;;;;;;;;5129657;27;19911;-44
2023/05/09 19:51:42;;;;;;;;;;;;;;;;;;5106450;27;19915;-48
2023/05/09 19:54:09;;;;;;;;;;;;;;;;;;5124192;27;20435;-46
2023/05/09 19:56:34;;;;;;;;;;;;;;;;;;5128553;27;19912;-49
2023/05/09 19:59:01;;;;;;;;;;;;;;;;;;5128761;27;19915;-48
2023/05/09 20:01:27;;;;;;;;;;;;;;;;;;5125613;27;19938;-45
2023/05/09 20:03:55;;;;;;;;;;;;;;;;;;5126707;27;19915;-47
2023/05/09 20:06:24;;;;;;;;;;;;;;;;;;5127569;27;20417;-45
2023/05/09 20:08:51;;;;;;;;;;;;;;;;;;5127247;27;20423;-48
2023/05/09 20:11:17;;;;;;;;;;;;;;;;;;5126149;27;19920;-46
2023/05/09 20:13:44;;;;;;;;;;;;;;;;;;5128272;27;19976;-49
2023/05/09 20:16:11;;;;;;;;;;;;;;;;;;5128885;27;20046;-45
2023/05/09 20:18:37;;;;;;;;;;;;;;;;;;5128377;27;20304;-47
2023/05/09 20:21:03;;;;;;;;;;;;;;;;;;5128285;27;20069;-49
2023/05/09 20:23:28;;;;;;;;;;;;;;;;;;5128122;27;20014;-47
2023/05/09 20:25:55;;;;;;;;;;;;;;;;;;5110226;27;19971;-47
2023/05/09 20:28:21;;;;;;;;;;;;;;;;;;5128373;27;20003;-46
2023/05/09 20:30:47;;;;;;;;;;;;;;;;;;5128486;27;20010;-47
2023/05/09 20:33:13;;;;;;;;;;;;;;;;;;5128912;27;19994;-45
2023/05/09 20:35:41;;;;;;;;;;;;;;;;;;5109528;27;19918;-47
2023/05/09 20:38:07;;;;;;;;;;;;;;;;;;5126977;27;19915;-46
2023/05/09 20:40:33;;;;;;;;;;;;;;;;;;5121611;27;19911;-46
2023/05/09 20:42:59;;;;;;;;;;;;;;;;;;5109703;27;19947;-45
2023/05/09 20:45:26;;;;;;;;;;;;;;;;;;5125798;27;19916;-48
2023/05/09 20:47:51;;;;;;;;;;;;;;;;;;5109620;27;20433;-48
2023/05/09 20:50:17;;;;;;;;;;;;;;;;;;5127803;27;20002;-47
2023/05/09 20:52:43;;;;;;;;;;;;;;;;;;5109283;27;19916;-46
2023/05/09 20:55:09;;;;;;;;;;;;;;;;;;5106976;27;19916;-48
2023/05/09 20:57:36;;;;;;;;;;;;;;;;;;5127290;27;19923;-46
2023/05/09 21:00:03;;;;;;;;;;;;;;;;;;5126499;27;19907;-46
2023/05/09 21:02:29;;;;;;;;;;;;;;;;;;5128095;27;20269;-47
2023/05/09 21:04:55;;;;;;;;;;;;;;;;;;5120803;27;20317;-47
2023/05/09 21:07:21;;;;;;;;;;;;;;;;;;5105830;27;19912;-46
2023/05/09 21:09:48;;;;;;;;;;;;;;;;;;5127244;27;19915;-49
2023/05/09 21:12:13;;;;;;;;;;;;;;;;;;5105279;27;20029;-46
2023/05/09 21:14:39;;;;;;;;;;;;;;;;;;5106813;27;20037;-48
2023/05/09 21:17:06;;;;;;;;;;;;;;;;;;5106930;28;20420;-46
2023/05/09 21:19:33;;;;;;;;;;;;;;;;;;5106122;28;19946;-47
2023/05/09 21:21:59;;;;;;;;;;;;;;;;;;5107372;28;20354;-47
2023/05/09 21:24:25;;;;;;;;;;;;;;;;;;5109408;27;19919;-47
2023/05/09 21:26:51;;;;;;;;;;;;;;;;;;5127408;27;19912;-48
2023/05/09 21:29:17;;;;;;;;;;;;;;;;;;5127092;27;19915;-48
2023/05/09 21:31:43;;;;;;;;;;;;;;;;;;5126266;27;19915;-46
2023/05/09 21:34:09;;;;;;;;;;;;;;;;;;5126824;27;20390;-48
2023/05/09 21:36:35;;;;;;;;;;;;;;;;;;5126708;27;19911;-48
2023/05/09 21:39:06;;;;;;;;;;;;;;;;;;5105668;27;19962;-45
2023/05/09 21:41:32;;;;;;;;;;;;;;;;;;5106318;28;20344;-50
2023/05/09 21:43:58;;;;;;;;;;;;;;;;;;5106576;28;19903;-47
2023/05/09 21:46:24;;;;;;;;;;;;;;;;;;5106028;28;19908;-46